sensor_id;sensor_type;location;lat;lon;timestamp;P1;durP1;ratioP1;P2;durP2;ratioP2
12567;SDS011;6349;50.904;6.136;2023-05-10T00:00:24;5.18;;;4.78;;
12567;SDS011;6349;50.904;6.136;2023-05-10T00:02:25;5.15;;;4.70;;
12567;SDS011;6349;50.904;6.136;2023-05-10T00:04:26;5.27;;;4.77;;
12567;SDS011;6349;50.904;6.136;2023-05-10T00:06:27;5.25;;;4.78;;
12567;SDS011;6349;50.904;6.136;2023-05-10T00:08:31;5.67;;;5.17;;
12567;SDS011;6349;50.904;6.136;2023-05-10T00:10:33;5.37;;;4.87;;
12567;SDS011;6349;50.904;6.136;2023-05-10T00:12:33;4.88;;;4.45;;
12567;SDS011;6349;50.904;6.136;2023-05-10T00:14:34;5.80;;;5.33;;
12567;SDS011;6349;50.904;6.136;2023-05-10T00:16:35;5.27;;;4.87;;
12567;SDS011;6349;50.904;6.136;2023-05-10T00:18:35;5.22;;;4.72;;
12567;SDS011;6349;50.904;6.136;2023-05-10T00:20:36;4.57;;;4.17;;
12567;SDS011;6349;50.904;6.136;2023-05-10T00:22:36;4.33;;;3.50;;
12567;SDS011;6349;50.904;6.136;2023-05-10T00:24:37;4.20;;;3.80;;
12567;SDS011;6349;50.904;6.136;2023-05-10T00:26:38;4.10;;;3.70;;
12567;SDS011;6349;50.904;6.136;2023-05-10T00:28:38;4.07;;;3.77;;
12567;SDS011;6349;50.904;6.136;2023-05-10T00:30:39;4.68;;;4.28;;
12567;SDS011;6349;50.904;6.136;2023-05-10T00:32:40;4.80;;;4.40;;
12567;SDS011;6349;50.904;6.136;2023-05-10T00:34:40;4.60;;;4.20;;
12567;SDS011;6349;50.904;6.136;2023-05-10T00:36:42;5.00;;;4.60;;
12567;SDS011;6349;50.904;6.136;2023-05-10T00:38:43;6.23;;;5.63;;
12567;SDS011;6349;50.904;6.136;2023-05-10T00:40:44;6.50;;;5.90;;
12567;SDS011;6349;50.904;6.136;2023-05-10T00:42:45;6.70;;;6.10;;
12567;SDS011;6349;50.904;6.136;2023-05-10T00:44:46;6.82;;;6.22;;
12567;SDS011;6349;50.904;6.136;2023-05-10T00:46:46;7.20;;;6.55;;
12567;SDS011;6349;50.904;6.136;2023-05-10T00:48:49;8.07;;;7.37;;
12567;SDS011;6349;50.904;6.136;2023-05-10T00:50:50;9.10;;;7.23;;
12567;SDS011;6349;50.904;6.136;2023-05-10T00:52:50;8.00;;;7.00;;
12567;SDS011;6349;50.904;6.136;2023-05-10T00:54:52;8.50;;;7.70;;
12567;SDS011;6349;50.904;6.136;2023-05-10T00:56:53;8.20;;;7.40;;
12567;SDS011;6349;50.904;6.136;2023-05-10T00:58:53;9.00;;;7.80;;
12567;SDS011;6349;50.904;6.136;2023-05-10T01:00:55;8.40;;;7.60;;
12567;SDS011;6349;50.904;6.136;2023-05-10T01:02:58;8.75;;;7.85;;
12567;SDS011;6349;50.904;6.136;2023-05-10T01:04:59;8.77;;;7.90;;
12567;SDS011;6349;50.904;6.136;2023-05-10T01:07:02;9.13;;;8.17;;
12567;SDS011;6349;50.904;6.136;2023-05-10T01:09:03;8.77;;;7.93;;
12567;SDS011;6349;50.904;6.136;2023-05-10T01:11:05;8.30;;;7.60;;
12567;SDS011;6349;50.904;6.136;2023-05-10T01:13:05;9.52;;;8.52;;
12567;SDS011;6349;50.904;6.136;2023-05-10T01:15:06;8.20;;;7.33;;
12567;SDS011;6349;50.904;6.136;2023-05-10T01:17:08;8.67;;;7.77;;
12567;SDS011;6349;50.904;6.136;2023-05-10T01:19:18;9.10;;;8.20;;
12567;SDS011;6349;50.904;6.136;2023-05-10T01:33:35;9.60;;;8.70;;
12567;SDS011;6349;50.904;6.136;2023-05-10T01:38:11;10.82;;;9.73;;
12567;SDS011;6349;50.904;6.136;2023-05-10T01:40:34;9.73;;;8.83;;
12567;SDS011;6349;50.904;6.136;2023-05-10T01:42:45;9.90;;;9.00;;
12567;SDS011;6349;50.904;6.136;2023-05-10T01:45:13;11.17;;;10.03;;
12567;SDS011;6349;50.904;6.136;2023-05-10T01:47:26;9.93;;;9.03;;
12567;SDS011;6349;50.904;6.136;2023-05-10T01:49:39;10.07;;;9.07;;
12567;SDS011;6349;50.904;6.136;2023-05-10T01:51:47;10.03;;;9.13;;
12567;SDS011;6349;50.904;6.136;2023-05-10T01:53:52;10.27;;;9.27;;
12567;SDS011;6349;50.904;6.136;2023-05-10T01:56:03;10.17;;;9.27;;
12567;SDS011;6349;50.904;6.136;2023-05-10T01:58:09;9.90;;;8.90;;
12567;SDS011;6349;50.904;6.136;2023-05-10T02:00:13;10.40;;;9.40;;
12567;SDS011;6349;50.904;6.136;2023-05-10T02:02:15;10.03;;;9.07;;
12567;SDS011;6349;50.904;6.136;2023-05-10T02:04:18;9.88;;;8.98;;
12567;SDS011;6349;50.904;6.136;2023-05-10T02:06:21;10.67;;;9.77;;
12567;SDS011;6349;50.904;6.136;2023-05-10T02:08:23;9.90;;;9.00;;
12567;SDS011;6349;50.904;6.136;2023-05-10T02:10:27;9.40;;;8.50;;
12567;SDS011;6349;50.904;6.136;2023-05-10T02:12:29;9.57;;;8.67;;
12567;SDS011;6349;50.904;6.136;2023-05-10T02:14:34;9.10;;;8.30;;
12567;SDS011;6349;50.904;6.136;2023-05-10T02:16:36;8.97;;;8.17;;
12567;SDS011;6349;50.904;6.136;2023-05-10T02:18:40;8.70;;;7.90;;
12567;SDS011;6349;50.904;6.136;2023-05-10T02:20:41;8.13;;;7.38;;
12567;SDS011;6349;50.904;6.136;2023-05-10T02:22:45;7.93;;;7.23;;
12567;SDS011;6349;50.904;6.136;2023-05-10T02:24:48;8.17;;;7.47;;
12567;SDS011;6349;50.904;6.136;2023-05-10T02:26:51;8.20;;;7.40;;
12567;SDS011;6349;50.904;6.136;2023-05-10T02:28:55;7.32;;;6.70;;
12567;SDS011;6349;50.904;6.136;2023-05-10T02:30:58;7.20;;;6.53;;
12567;SDS011;6349;50.904;6.136;2023-05-10T02:33:01;7.90;;;6.37;;
12567;SDS011;6349;50.904;6.136;2023-05-10T02:35:04;7.63;;;6.13;;
12567;SDS011;6349;50.904;6.136;2023-05-10T02:37:07;7.53;;;6.73;;
12567;SDS011;6349;50.904;6.136;2023-05-10T02:39:08;7.17;;;6.47;;
12567;SDS011;6349;50.904;6.136;2023-05-10T02:41:13;8.30;;;6.30;;
12567;SDS011;6349;50.904;6.136;2023-05-10T02:43:15;6.70;;;6.07;;
12567;SDS011;6349;50.904;6.136;2023-05-10T02:45:18;6.90;;;6.07;;
12567;SDS011;6349;50.904;6.136;2023-05-10T02:47:23;6.73;;;6.03;;
12567;SDS011;6349;50.904;6.136;2023-05-10T02:49:24;6.50;;;5.90;;
12567;SDS011;6349;50.904;6.136;2023-05-10T02:51:25;6.67;;;6.03;;
12567;SDS011;6349;50.904;6.136;2023-05-10T02:53:36;7.03;;;6.43;;
12567;SDS011;6349;50.904;6.136;2023-05-10T02:55:42;6.70;;;6.03;;
12567;SDS011;6349;50.904;6.136;2023-05-10T02:57:55;7.23;;;6.60;;
12567;SDS011;6349;50.904;6.136;2023-05-10T02:59:58;7.20;;;6.43;;
12567;SDS011;6349;50.904;6.136;2023-05-10T03:02:01;7.37;;;6.50;;
12567;SDS011;6349;50.904;6.136;2023-05-10T03:04:03;7.50;;;6.53;;
12567;SDS011;6349;50.904;6.136;2023-05-10T03:06:04;8.63;;;7.10;;
12567;SDS011;6349;50.904;6.136;2023-05-10T03:08:04;8.70;;;7.40;;
12567;SDS011;6349;50.904;6.136;2023-05-10T03:10:06;8.18;;;7.38;;
12567;SDS011;6349;50.904;6.136;2023-05-10T03:12:09;9.27;;;8.00;;
12567;SDS011;6349;50.904;6.136;2023-05-10T03:16:42;9.13;;;8.23;;
12567;SDS011;6349;50.904;6.136;2023-05-10T03:18:54;10.15;;;8.43;;
12567;SDS011;6349;50.904;6.136;2023-05-10T03:21:03;9.53;;;7.97;;
12567;SDS011;6349;50.904;6.136;2023-05-10T03:23:11;9.17;;;8.27;;
12567;SDS011;6349;50.904;6.136;2023-05-10T03:25:19;9.87;;;8.87;;
12567;SDS011;6349;50.904;6.136;2023-05-10T03:27:22;11.03;;;9.27;;
12567;SDS011;6349;50.904;6.136;2023-05-10T03:29:23;9.97;;;8.97;;
12567;SDS011;6349;50.904;6.136;2023-05-10T03:31:27;10.70;;;9.50;;
12567;SDS011;6349;50.904;6.136;2023-05-10T03:33:28;11.48;;;9.30;;
12567;SDS011;6349;50.904;6.136;2023-05-10T03:35:29;10.53;;;9.40;;
12567;SDS011;6349;50.904;6.136;2023-05-10T03:37:29;12.73;;;10.65;;
12567;SDS011;6349;50.904;6.136;2023-05-10T03:39:30;11.82;;;9.98;;
12567;SDS011;6349;50.904;6.136;2023-05-10T03:41:30;11.40;;;9.27;;
12567;SDS011;6349;50.904;6.136;2023-05-10T03:43:31;12.40;;;9.40;;
12567;SDS011;6349;50.904;6.136;2023-05-10T03:45:32;13.77;;;9.57;;
12567;SDS011;6349;50.904;6.136;2023-05-10T03:47:32;16.17;;;10.37;;
12567;SDS011;6349;50.904;6.136;2023-05-10T03:49:33;12.20;;;9.53;;
12567;SDS011;6349;50.904;6.136;2023-05-10T03:51:33;12.23;;;9.77;;
12567;SDS011;6349;50.904;6.136;2023-05-10T03:53:34;13.73;;;9.83;;
12567;SDS011;6349;50.904;6.136;2023-05-10T03:55:36;13.17;;;9.43;;
12567;SDS011;6349;50.904;6.136;2023-05-10T03:57:37;13.57;;;10.13;;
12567;SDS011;6349;50.904;6.136;2023-05-10T03:59:39;14.33;;;10.20;;
12567;SDS011;6349;50.904;6.136;2023-05-10T04:01:39;12.80;;;10.10;;
12567;SDS011;6349;50.904;6.136;2023-05-10T04:03:40;10.63;;;8.90;;
12567;SDS011;6349;50.904;6.136;2023-05-10T04:05:41;11.23;;;10.00;;
12567;SDS011;6349;50.904;6.136;2023-05-10T04:07:43;12.93;;;9.23;;
12567;SDS011;6349;50.904;6.136;2023-05-10T04:09:45;12.40;;;9.40;;
12567;SDS011;6349;50.904;6.136;2023-05-10T04:11:48;10.87;;;9.57;;
12567;SDS011;6349;50.904;6.136;2023-05-10T04:13:49;10.47;;;8.67;;
12567;SDS011;6349;50.904;6.136;2023-05-10T04:15:51;10.00;;;9.00;;
12567;SDS011;6349;50.904;6.136;2023-05-10T04:17:52;11.03;;;9.23;;
12567;SDS011;6349;50.904;6.136;2023-05-10T04:19:53;10.37;;;8.70;;
12567;SDS011;6349;50.904;6.136;2023-05-10T04:21:54;11.97;;;9.37;;
12567;SDS011;6349;50.904;6.136;2023-05-10T04:23:55;11.80;;;9.63;;
12567;SDS011;6349;50.904;6.136;2023-05-10T04:26:00;10.73;;;8.83;;
12567;SDS011;6349;50.904;6.136;2023-05-10T04:28:01;12.20;;;9.03;;
12567;SDS011;6349;50.904;6.136;2023-05-10T04:30:01;11.83;;;9.13;;
12567;SDS011;6349;50.904;6.136;2023-05-10T04:32:03;11.20;;;8.83;;
12567;SDS011;6349;50.904;6.136;2023-05-10T04:34:04;10.33;;;8.73;;
12567;SDS011;6349;50.904;6.136;2023-05-10T04:36:06;9.97;;;8.10;;
12567;SDS011;6349;50.904;6.136;2023-05-10T04:38:07;9.10;;;7.80;;
12567;SDS011;6349;50.904;6.136;2023-05-10T04:40:09;10.53;;;8.37;;
12567;SDS011;6349;50.904;6.136;2023-05-10T04:42:10;9.70;;;8.70;;
12567;SDS011;6349;50.904;6.136;2023-05-10T04:44:11;9.47;;;8.47;;
12567;SDS011;6349;50.904;6.136;2023-05-10T04:46:11;12.93;;;8.80;;
12567;SDS011;6349;50.904;6.136;2023-05-10T04:48:12;11.30;;;9.27;;
12567;SDS011;6349;50.904;6.136;2023-05-10T04:50:13;13.83;;;10.37;;
12567;SDS011;6349;50.904;6.136;2023-05-10T04:52:13;11.37;;;8.63;;
12567;SDS011;6349;50.904;6.136;2023-05-10T04:54:15;10.47;;;9.37;;
12567;SDS011;6349;50.904;6.136;2023-05-10T04:56:15;10.50;;;9.20;;
12567;SDS011;6349;50.904;6.136;2023-05-10T04:58:16;12.67;;;9.80;;
12567;SDS011;6349;50.904;6.136;2023-05-10T05:00:17;10.63;;;9.37;;
12567;SDS011;6349;50.904;6.136;2023-05-10T05:02:18;12.70;;;9.80;;
12567;SDS011;6349;50.904;6.136;2023-05-10T05:04:19;11.63;;;9.50;;
12567;SDS011;6349;50.904;6.136;2023-05-10T05:06:20;12.67;;;9.07;;
12567;SDS011;6349;50.904;6.136;2023-05-10T05:08:22;11.37;;;9.07;;
12567;SDS011;6349;50.904;6.136;2023-05-10T05:10:28;11.25;;;9.40;;
12567;SDS011;6349;50.904;6.136;2023-05-10T05:12:29;12.40;;;10.17;;
12567;SDS011;6349;50.904;6.136;2023-05-10T05:14:30;13.55;;;10.07;;
12567;SDS011;6349;50.904;6.136;2023-05-10T05:16:31;12.37;;;9.10;;
12567;SDS011;6349;50.904;6.136;2023-05-10T05:18:32;11.10;;;9.23;;
12567;SDS011;6349;50.904;6.136;2023-05-10T05:20:33;11.77;;;9.40;;
12567;SDS011;6349;50.904;6.136;2023-05-10T05:22:35;10.87;;;9.73;;
12567;SDS011;6349;50.904;6.136;2023-05-10T05:24:36;10.50;;;9.43;;
12567;SDS011;6349;50.904;6.136;2023-05-10T05:26:38;11.07;;;8.63;;
12567;SDS011;6349;50.904;6.136;2023-05-10T05:28:38;12.10;;;9.30;;
12567;SDS011;6349;50.904;6.136;2023-05-10T05:30:39;11.07;;;8.67;;
12567;SDS011;6349;50.904;6.136;2023-05-10T05:32:39;10.10;;;8.77;;
12567;SDS011;6349;50.904;6.136;2023-05-10T05:34:41;9.73;;;8.75;;
12567;SDS011;6349;50.904;6.136;2023-05-10T05:36:44;10.85;;;8.85;;
12567;SDS011;6349;50.904;6.136;2023-05-10T05:38:44;10.88;;;9.32;;
12567;SDS011;6349;50.904;6.136;2023-05-10T05:40:46;8.53;;;7.53;;
12567;SDS011;6349;50.904;6.136;2023-05-10T05:42:48;9.47;;;8.57;;
12567;SDS011;6349;50.904;6.136;2023-05-10T05:44:49;9.47;;;8.57;;
12567;SDS011;6349;50.904;6.136;2023-05-10T05:46:49;9.40;;;8.50;;
12567;SDS011;6349;50.904;6.136;2023-05-10T05:48:50;9.23;;;8.33;;
12567;SDS011;6349;50.904;6.136;2023-05-10T05:50:53;9.43;;;8.50;;
12567;SDS011;6349;50.904;6.136;2023-05-10T05:52:55;8.50;;;7.60;;
12567;SDS011;6349;50.904;6.136;2023-05-10T05:54:57;8.27;;;7.47;;
12567;SDS011;6349;50.904;6.136;2023-05-10T05:56:58;7.83;;;7.13;;
12567;SDS011;6349;50.904;6.136;2023-05-10T05:58:59;7.77;;;6.97;;
12567;SDS011;6349;50.904;6.136;2023-05-10T06:01:01;7.07;;;6.37;;
12567;SDS011;6349;50.904;6.136;2023-05-10T06:03:02;8.03;;;7.20;;
12567;SDS011;6349;50.904;6.136;2023-05-10T06:05:04;7.33;;;6.63;;
12567;SDS011;6349;50.904;6.136;2023-05-10T06:07:05;7.38;;;6.68;;
12567;SDS011;6349;50.904;6.136;2023-05-10T06:09:06;6.07;;;5.47;;
12567;SDS011;6349;50.904;6.136;2023-05-10T06:11:08;7.18;;;5.40;;
12567;SDS011;6349;50.904;6.136;2023-05-10T06:13:08;6.50;;;5.57;;
12567;SDS011;6349;50.904;6.136;2023-05-10T06:15:09;5.40;;;4.90;;
12567;SDS011;6349;50.904;6.136;2023-05-10T06:17:10;5.27;;;4.77;;
12567;SDS011;6349;50.904;6.136;2023-05-10T06:19:11;5.30;;;4.80;;
12567;SDS011;6349;50.904;6.136;2023-05-10T06:21:12;5.80;;;4.90;;
12567;SDS011;6349;50.904;6.136;2023-05-10T06:23:12;4.80;;;4.37;;
12567;SDS011;6349;50.904;6.136;2023-05-10T06:25:14;4.90;;;4.50;;
12567;SDS011;6349;50.904;6.136;2023-05-10T06:27:14;5.23;;;4.73;;
12567;SDS011;6349;50.904;6.136;2023-05-10T06:29:16;4.77;;;4.33;;
12567;SDS011;6349;50.904;6.136;2023-05-10T06:31:17;4.70;;;4.23;;
12567;SDS011;6349;50.904;6.136;2023-05-10T06:33:18;5.00;;;4.50;;
12567;SDS011;6349;50.904;6.136;2023-05-10T06:35:18;4.80;;;4.37;;
12567;SDS011;6349;50.904;6.136;2023-05-10T06:37:19;4.88;;;4.47;;
12567;SDS011;6349;50.904;6.136;2023-05-10T06:39:21;5.17;;;4.40;;
12567;SDS011;6349;50.904;6.136;2023-05-10T06:41:23;4.60;;;4.20;;
12567;SDS011;6349;50.904;6.136;2023-05-10T06:43:23;4.80;;;4.40;;
12567;SDS011;6349;50.904;6.136;2023-05-10T06:45:26;4.53;;;4.13;;
12567;SDS011;6349;50.904;6.136;2023-05-10T06:47:26;5.10;;;4.60;;
12567;SDS011;6349;50.904;6.136;2023-05-10T06:49:27;4.90;;;4.43;;
12567;SDS011;6349;50.904;6.136;2023-05-10T06:51:27;4.97;;;4.57;;
12567;SDS011;6349;50.904;6.136;2023-05-10T06:53:28;4.87;;;4.40;;
12567;SDS011;6349;50.904;6.136;2023-05-10T06:55:30;4.67;;;4.27;;
12567;SDS011;6349;50.904;6.136;2023-05-10T06:57:32;4.82;;;4.22;;
12567;SDS011;6349;50.904;6.136;2023-05-10T06:59:32;3.90;;;3.60;;
12567;SDS011;6349;50.904;6.136;2023-05-10T07:01:34;4.25;;;3.85;;
12567;SDS011;6349;50.904;6.136;2023-05-10T07:03:35;4.40;;;4.00;;
12567;SDS011;6349;50.904;6.136;2023-05-10T07:05:37;4.07;;;3.67;;
12567;SDS011;6349;50.904;6.136;2023-05-10T07:07:39;4.97;;;4.47;;
12567;SDS011;6349;50.904;6.136;2023-05-10T07:09:40;4.90;;;4.50;;
12567;SDS011;6349;50.904;6.136;2023-05-10T07:11:42;5.83;;;5.23;;
12567;SDS011;6349;50.904;6.136;2023-05-10T07:13:42;5.57;;;5.00;;
12567;SDS011;6349;50.904;6.136;2023-05-10T07:15:44;4.73;;;4.33;;
12567;SDS011;6349;50.904;6.136;2023-05-10T07:17:44;5.20;;;4.67;;
12567;SDS011;6349;50.904;6.136;2023-05-10T07:19:45;4.77;;;4.30;;
12567;SDS011;6349;50.904;6.136;2023-05-10T07:21:46;5.83;;;4.47;;
12567;SDS011;6349;50.904;6.136;2023-05-10T07:23:46;5.80;;;5.20;;
12567;SDS011;6349;50.904;6.136;2023-05-10T07:25:48;5.97;;;5.37;;
12567;SDS011;6349;50.904;6.136;2023-05-10T07:27:51;5.97;;;5.37;;
12567;SDS011;6349;50.904;6.136;2023-05-10T07:29:52;6.20;;;5.60;;
12567;SDS011;6349;50.904;6.136;2023-05-10T07:31:53;6.93;;;5.80;;
12567;SDS011;6349;50.904;6.136;2023-05-10T07:33:53;7.97;;;6.40;;
12567;SDS011;6349;50.904;6.136;2023-05-10T07:35:55;7.40;;;6.47;;
12567;SDS011;6349;50.904;6.136;2023-05-10T07:37:56;7.57;;;6.53;;
12567;SDS011;6349;50.904;6.136;2023-05-10T07:39:56;8.27;;;7.37;;
12567;SDS011;6349;50.904;6.136;2023-05-10T07:41:57;10.57;;;8.33;;
12567;SDS011;6349;50.904;6.136;2023-05-10T07:43:57;13.37;;;10.67;;
12567;SDS011;6349;50.904;6.136;2023-05-10T07:45:58;15.17;;;12.20;;
12567;SDS011;6349;50.904;6.136;2023-05-10T07:47:59;16.30;;;11.67;;
12567;SDS011;6349;50.904;6.136;2023-05-10T07:50:00;16.20;;;12.20;;
12567;SDS011;6349;50.904;6.136;2023-05-10T07:52:02;16.03;;;12.67;;
12567;SDS011;6349;50.904;6.136;2023-05-10T07:54:03;16.00;;;12.93;;
12567;SDS011;6349;50.904;6.136;2023-05-10T07:58:29;17.17;;;13.43;;
12567;SDS011;6349;50.904;6.136;2023-05-10T08:00:30;19.60;;;14.17;;
12567;SDS011;6349;50.904;6.136;2023-05-10T08:02:30;17.23;;;13.93;;
12567;SDS011;6349;50.904;6.136;2023-05-10T08:04:32;16.80;;;12.83;;
12567;SDS011;6349;50.904;6.136;2023-05-10T08:06:33;18.67;;;13.90;;
12567;SDS011;6349;50.904;6.136;2023-05-10T08:08:33;18.37;;;14.13;;
12567;SDS011;6349;50.904;6.136;2023-05-10T08:10:34;19.27;;;14.07;;
12567;SDS011;6349;50.904;6.136;2023-05-10T08:12:34;20.17;;;13.73;;
12567;SDS011;6349;50.904;6.136;2023-05-10T08:14:35;15.97;;;12.57;;
12567;SDS011;6349;50.904;6.136;2023-05-10T08:16:38;16.47;;;12.87;;
12567;SDS011;6349;50.904;6.136;2023-05-10T08:18:39;16.60;;;13.13;;
12567;SDS011;6349;50.904;6.136;2023-05-10T08:20:40;17.97;;;13.37;;
12567;SDS011;6349;50.904;6.136;2023-05-10T08:22:40;17.53;;;13.80;;
12567;SDS011;6349;50.904;6.136;2023-05-10T08:24:41;18.05;;;13.13;;
12567;SDS011;6349;50.904;6.136;2023-05-10T08:26:43;19.17;;;13.80;;
12567;SDS011;6349;50.904;6.136;2023-05-10T08:28:43;16.83;;;13.43;;
12567;SDS011;6349;50.904;6.136;2023-05-10T08:30:44;18.23;;;13.63;;
12567;SDS011;6349;50.904;6.136;2023-05-10T08:32:45;19.33;;;14.63;;
12567;SDS011;6349;50.904;6.136;2023-05-10T08:34:47;20.70;;;14.80;;
12567;SDS011;6349;50.904;6.136;2023-05-10T08:36:47;20.70;;;14.90;;
12567;SDS011;6349;50.904;6.136;2023-05-10T08:38:51;20.67;;;15.13;;
12567;SDS011;6349;50.904;6.136;2023-05-10T08:40:53;17.27;;;13.70;;
12567;SDS011;6349;50.904;6.136;2023-05-10T08:43:00;20.17;;;14.27;;
12567;SDS011;6349;50.904;6.136;2023-05-10T08:45:09;18.60;;;13.20;;
12567;SDS011;6349;50.904;6.136;2023-05-10T08:47:12;16.67;;;13.07;;
12567;SDS011;6349;50.904;6.136;2023-05-10T08:49:16;18.73;;;13.23;;
12567;SDS011;6349;50.904;6.136;2023-05-10T08:51:22;16.83;;;13.13;;
12567;SDS011;6349;50.904;6.136;2023-05-10T08:53:26;14.90;;;11.95;;
12567;SDS011;6349;50.904;6.136;2023-05-10T08:55:30;12.40;;;9.47;;
12567;SDS011;6349;50.904;6.136;2023-05-10T08:57:33;11.20;;;9.57;;
12567;SDS011;6349;50.904;6.136;2023-05-10T08:59:35;10.27;;;8.87;;
12567;SDS011;6349;50.904;6.136;2023-05-10T09:01:35;9.73;;;8.10;;
12567;SDS011;6349;50.904;6.136;2023-05-10T09:03:38;8.10;;;7.30;;
12567;SDS011;6349;50.904;6.136;2023-05-10T09:05:39;7.90;;;6.93;;
12567;SDS011;6349;50.904;6.136;2023-05-10T09:07:42;7.80;;;6.50;;
12567;SDS011;6349;50.904;6.136;2023-05-10T09:09:43;6.50;;;5.90;;
12567;SDS011;6349;50.904;6.136;2023-05-10T09:11:45;7.60;;;5.77;;
12567;SDS011;6349;50.904;6.136;2023-05-10T09:13:47;6.33;;;5.37;;
12567;SDS011;6349;50.904;6.136;2023-05-10T09:15:50;7.03;;;4.97;;
12567;SDS011;6349;50.904;6.136;2023-05-10T09:17:51;5.32;;;4.82;;
12567;SDS011;6349;50.904;6.136;2023-05-10T09:19:59;6.25;;;5.15;;
12567;SDS011;6349;50.904;6.136;2023-05-10T09:22:01;4.88;;;4.47;;
12567;SDS011;6349;50.904;6.136;2023-05-10T09:24:02;4.97;;;4.47;;
12567;SDS011;6349;50.904;6.136;2023-05-10T09:26:07;5.20;;;4.70;;
12567;SDS011;6349;50.904;6.136;2023-05-10T09:28:08;5.00;;;4.53;;
12567;SDS011;6349;50.904;6.136;2023-05-10T09:30:09;4.95;;;4.45;;
12567;SDS011;6349;50.904;6.136;2023-05-10T09:32:11;5.20;;;4.72;;
12567;SDS011;6349;50.904;6.136;2023-05-10T09:34:16;5.30;;;4.80;;
12567;SDS011;6349;50.904;6.136;2023-05-10T09:36:17;5.00;;;4.47;;
12567;SDS011;6349;50.904;6.136;2023-05-10T09:38:18;4.85;;;4.40;;
12567;SDS011;6349;50.904;6.136;2023-05-10T09:40:21;5.55;;;5.00;;
12567;SDS011;6349;50.904;6.136;2023-05-10T09:42:22;4.53;;;4.13;;
12567;SDS011;6349;50.904;6.136;2023-05-10T09:44:25;4.20;;;3.83;;
12567;SDS011;6349;50.904;6.136;2023-05-10T09:46:26;4.17;;;3.77;;
12567;SDS011;6349;50.904;6.136;2023-05-10T09:48:26;4.57;;;3.67;;
12567;SDS011;6349;50.904;6.136;2023-05-10T09:50:27;5.38;;;4.32;;
12567;SDS011;6349;50.904;6.136;2023-05-10T09:52:28;4.00;;;3.70;;
12567;SDS011;6349;50.904;6.136;2023-05-10T09:54:29;3.78;;;3.38;;
12567;SDS011;6349;50.904;6.136;2023-05-10T09:56:33;4.50;;;4.10;;
12567;SDS011;6349;50.904;6.136;2023-05-10T09:58:39;4.47;;;3.97;;
12567;SDS011;6349;50.904;6.136;2023-05-10T10:00:45;4.40;;;4.00;;
12567;SDS011;6349;50.904;6.136;2023-05-10T10:02:57;4.70;;;4.30;;
12567;SDS011;6349;50.904;6.136;2023-05-10T10:05:00;4.18;;;3.78;;
12567;SDS011;6349;50.904;6.136;2023-05-10T10:07:04;4.03;;;3.70;;
12567;SDS011;6349;50.904;6.136;2023-05-10T10:09:07;3.88;;;3.47;;
12567;SDS011;6349;50.904;6.136;2023-05-10T10:11:09;3.60;;;3.30;;
12567;SDS011;6349;50.904;6.136;2023-05-10T10:13:10;4.00;;;3.60;;
12567;SDS011;6349;50.904;6.136;2023-05-10T10:15:10;4.15;;;3.65;;
12567;SDS011;6349;50.904;6.136;2023-05-10T10:17:11;4.00;;;3.70;;
12567;SDS011;6349;50.904;6.136;2023-05-10T10:19:12;4.13;;;3.72;;
12567;SDS011;6349;50.904;6.136;2023-05-10T10:21:13;4.32;;;3.92;;
12567;SDS011;6349;50.904;6.136;2023-05-10T10:23:15;4.45;;;4.05;;
12567;SDS011;6349;50.904;6.136;2023-05-10T10:25:17;3.95;;;3.65;;
12567;SDS011;6349;50.904;6.136;2023-05-10T10:27:23;4.13;;;3.72;;
12567;SDS011;6349;50.904;6.136;2023-05-10T10:29:33;4.10;;;3.70;;
12567;SDS011;6349;50.904;6.136;2023-05-10T10:31:48;3.47;;;3.17;;
12567;SDS011;6349;50.904;6.136;2023-05-10T10:34:27;4.03;;;3.72;;
12567;SDS011;6349;50.904;6.136;2023-05-10T10:36:30;4.05;;;3.70;;
12567;SDS011;6349;50.904;6.136;2023-05-10T10:40:46;4.30;;;3.90;;
12567;SDS011;6349;50.904;6.136;2023-05-10T10:42:47;3.45;;;3.15;;
12567;SDS011;6349;50.904;6.136;2023-05-10T10:44:50;3.13;;;2.90;;
12567;SDS011;6349;50.904;6.136;2023-05-10T10:49:24;4.13;;;3.72;;
12567;SDS011;6349;50.904;6.136;2023-05-10T10:51:28;3.95;;;3.47;;
12567;SDS011;6349;50.904;6.136;2023-05-10T10:53:29;3.70;;;3.40;;
12567;SDS011;6349;50.904;6.136;2023-05-10T10:55:31;4.03;;;3.63;;
12567;SDS011;6349;50.904;6.136;2023-05-10T10:57:54;3.70;;;3.40;;
12567;SDS011;6349;50.904;6.136;2023-05-10T11:02:32;3.63;;;3.33;;
12567;SDS011;6349;50.904;6.136;2023-05-10T11:04:42;4.13;;;3.72;;
12567;SDS011;6349;50.904;6.136;2023-05-10T11:06:46;3.65;;;3.35;;
12567;SDS011;6349;50.904;6.136;2023-05-10T11:08:46;3.50;;;3.20;;
12567;SDS011;6349;50.904;6.136;2023-05-10T11:11:03;3.95;;;3.63;;
12567;SDS011;6349;50.904;6.136;2023-05-10T11:13:11;4.30;;;3.90;;
12567;SDS011;6349;50.904;6.136;2023-05-10T11:15:12;3.30;;;3.00;;
12567;SDS011;6349;50.904;6.136;2023-05-10T11:17:26;3.28;;;2.97;;
12567;SDS011;6349;50.904;6.136;2023-05-10T11:19:29;4.10;;;3.28;;
12567;SDS011;6349;50.904;6.136;2023-05-10T11:21:30;3.42;;;3.13;;
12567;SDS011;6349;50.904;6.136;2023-05-10T11:25:48;2.83;;;2.63;;
12567;SDS011;6349;50.904;6.136;2023-05-10T11:27:50;2.60;;;2.40;;
12567;SDS011;6349;50.904;6.136;2023-05-10T11:29:51;2.85;;;2.63;;
12567;SDS011;6349;50.904;6.136;2023-05-10T11:31:53;2.63;;;2.42;;
12567;SDS011;6349;50.904;6.136;2023-05-10T11:33:58;2.80;;;2.60;;
12567;SDS011;6349;50.904;6.136;2023-05-10T11:35:59;3.00;;;2.80;;
12567;SDS011;6349;50.904;6.136;2023-05-10T11:38:01;3.00;;;2.80;;
12567;SDS011;6349;50.904;6.136;2023-05-10T11:40:03;3.13;;;2.70;;
12567;SDS011;6349;50.904;6.136;2023-05-10T11:42:04;3.10;;;2.80;;
12567;SDS011;6349;50.904;6.136;2023-05-10T11:44:05;3.17;;;2.97;;
12567;SDS011;6349;50.904;6.136;2023-05-10T11:46:10;3.30;;;3.00;;
12567;SDS011;6349;50.904;6.136;2023-05-10T11:48:12;3.45;;;2.90;;
12567;SDS011;6349;50.904;6.136;2023-05-10T11:50:13;3.25;;;2.97;;
12567;SDS011;6349;50.904;6.136;2023-05-10T11:52:14;3.60;;;3.30;;
12567;SDS011;6349;50.904;6.136;2023-05-10T11:54:15;3.50;;;3.20;;
12567;SDS011;6349;50.904;6.136;2023-05-10T11:56:15;3.97;;;3.60;;
12567;SDS011;6349;50.904;6.136;2023-05-10T11:58:17;3.95;;;3.65;;
12567;SDS011;6349;50.904;6.136;2023-05-10T12:00:18;4.00;;;3.60;;
12567;SDS011;6349;50.904;6.136;2023-05-10T12:02:19;4.00;;;3.70;;
12567;SDS011;6349;50.904;6.136;2023-05-10T12:04:20;4.32;;;3.92;;
12567;SDS011;6349;50.904;6.136;2023-05-10T12:06:21;3.78;;;3.47;;
12567;SDS011;6349;50.904;6.136;2023-05-10T12:08:24;4.47;;;4.07;;
12567;SDS011;6349;50.904;6.136;2023-05-10T12:10:27;3.78;;;3.47;;
12567;SDS011;6349;50.904;6.136;2023-05-10T12:12:34;3.97;;;3.58;;
12567;SDS011;6349;50.904;6.136;2023-05-10T12:14:36;4.20;;;3.80;;
12567;SDS011;6349;50.904;6.136;2023-05-10T12:16:37;3.55;;;3.25;;
12567;SDS011;6349;50.904;6.136;2023-05-10T12:18:38;3.63;;;2.92;;
12567;SDS011;6349;50.904;6.136;2023-05-10T12:20:40;3.10;;;2.75;;
12567;SDS011;6349;50.904;6.136;2023-05-10T12:22:45;2.90;;;2.60;;
12567;SDS011;6349;50.904;6.136;2023-05-10T12:24:46;2.78;;;2.58;;
12567;SDS011;6349;50.904;6.136;2023-05-10T12:26:46;2.63;;;2.42;;
12567;SDS011;6349;50.904;6.136;2023-05-10T12:28:48;3.00;;;2.70;;
12567;SDS011;6349;50.904;6.136;2023-05-10T12:30:49;2.80;;;2.53;;
12567;SDS011;6349;50.904;6.136;2023-05-10T12:32:58;3.15;;;2.85;;
12567;SDS011;6349;50.904;6.136;2023-05-10T12:35:07;2.58;;;2.38;;
12567;SDS011;6349;50.904;6.136;2023-05-10T12:37:09;3.15;;;2.85;;
12567;SDS011;6349;50.904;6.136;2023-05-10T12:39:10;3.05;;;2.75;;
12567;SDS011;6349;50.904;6.136;2023-05-10T12:41:13;3.47;;;2.47;;
12567;SDS011;6349;50.904;6.136;2023-05-10T12:43:16;2.28;;;2.08;;
12567;SDS011;6349;50.904;6.136;2023-05-10T12:45:17;2.03;;;1.70;;
12567;SDS011;6349;50.904;6.136;2023-05-10T12:47:18;1.70;;;1.60;;
12567;SDS011;6349;50.904;6.136;2023-05-10T12:49:18;1.95;;;1.75;;
12567;SDS011;6349;50.904;6.136;2023-05-10T12:51:19;2.38;;;2.17;;
12567;SDS011;6349;50.904;6.136;2023-05-10T12:53:21;2.50;;;2.30;;